createdAt,value
2022-12-11T00:01:53.792Z,7.17
2022-12-11T00:04:41.216Z,8.23
2022-12-11T00:07:28.621Z,7.87
2022-12-11T00:10:16.008Z,7.83
2022-12-11T00:13:04.013Z,7.33
2022-12-11T00:15:51.396Z,7.50
2022-12-11T00:18:39.464Z,7.07
2022-12-11T00:21:26.807Z,8.43
2022-12-11T00:24:14.370Z,7.53
2022-12-11T00:27:01.914Z,6.97
2022-12-11T00:29:49.249Z,7.03
2022-12-11T00:32:37.853Z,7.07
2022-12-11T00:35:25.608Z,6.93
2022-12-11T00:38:17.472Z,6.60
2022-12-11T00:41:05.239Z,7.17
2022-12-11T00:43:52.638Z,6.83
2022-12-11T00:46:40.008Z,7.67
2022-12-11T00:49:27.518Z,7.50
2022-12-11T00:52:15.145Z,7.13
2022-12-11T00:55:02.493Z,6.70
2022-12-11T00:57:52.367Z,7.00
2022-12-11T01:00:40.454Z,7.00
2022-12-11T01:03:27.789Z,7.83
2022-12-11T01:06:16.551Z,7.00
2022-12-11T01:09:22.628Z,6.77
2022-12-11T01:12:09.951Z,7.00
2022-12-11T01:14:57.308Z,7.20
2022-12-11T01:17:44.678Z,7.90
2022-12-11T01:20:32.046Z,7.90
2022-12-11T01:23:19.427Z,7.73
2022-12-11T01:26:11.234Z,7.93
2022-12-11T01:28:58.606Z,7.27
2022-12-11T01:31:45.977Z,7.47
2022-12-11T01:34:33.990Z,7.47
2022-12-11T01:37:21.468Z,7.47
2022-12-11T01:40:10.001Z,7.93
2022-12-11T01:42:57.495Z,7.07
2022-12-11T01:45:46.947Z,7.13
2022-12-11T01:48:39.256Z,7.43
2022-12-11T01:51:30.237Z,7.10
2022-12-11T01:54:19.397Z,6.70
2022-12-11T01:57:09.227Z,6.70
2022-12-11T01:59:56.746Z,7.20
2022-12-11T02:02:44.653Z,6.60
2022-12-11T02:05:32.092Z,6.53
2022-12-11T02:08:20.049Z,6.57
2022-12-11T02:11:12.246Z,7.63
2022-12-11T02:14:19.684Z,7.13
2022-12-11T02:17:06.974Z,6.00
2022-12-11T02:19:54.304Z,6.70
2022-12-11T02:22:59.486Z,6.50
2022-12-11T02:26:05.321Z,6.63
2022-12-11T02:28:59.694Z,6.83
2022-12-11T02:31:57.194Z,6.17
2022-12-11T02:34:47.124Z,6.77
2022-12-11T02:37:36.397Z,6.60
2022-12-11T02:40:26.251Z,6.47
2022-12-11T02:43:15.131Z,6.40
2022-12-11T02:46:04.219Z,7.00
2022-12-11T02:48:51.932Z,6.40
2022-12-11T02:51:41.018Z,6.10
2022-12-11T02:54:30.589Z,6.73
2022-12-11T02:57:31.790Z,6.33
2022-12-11T03:00:19.448Z,6.13
2022-12-11T03:03:06.879Z,6.80
2022-12-11T03:05:54.304Z,5.47
2022-12-11T03:08:41.649Z,6.40
2022-12-11T03:11:29.001Z,6.77
2022-12-11T03:14:16.403Z,6.20
2022-12-11T03:17:03.736Z,6.60
2022-12-11T03:19:57.665Z,6.00
2022-12-11T03:22:48.515Z,6.37
2022-12-11T03:25:59.166Z,6.47
2022-12-11T03:28:52.125Z,6.63
2022-12-11T03:31:42.248Z,6.30
2022-12-11T03:34:36.570Z,6.80
2022-12-11T03:37:26.209Z,6.37
2022-12-11T03:40:16.119Z,6.50
2022-12-11T03:43:03.789Z,5.97
2022-12-11T03:45:52.478Z,7.47
2022-12-11T03:48:41.724Z,6.20
2022-12-11T03:51:30.509Z,6.07
2022-12-11T03:54:18.120Z,6.40
2022-12-11T03:57:06.418Z,6.77
2022-12-11T03:59:53.748Z,6.63
2022-12-11T04:02:41.766Z,6.43
2022-12-11T04:05:29.092Z,6.80
2022-12-11T04:08:17.317Z,7.40
2022-12-11T04:11:24.166Z,6.57
2022-12-11T04:14:31.669Z,6.83
2022-12-11T04:17:37.676Z,7.13
2022-12-11T04:20:43.969Z,7.47
2022-12-11T04:23:49.822Z,7.07
2022-12-11T04:26:37.169Z,6.53
2022-12-11T04:29:24.508Z,6.80
2022-12-11T04:32:11.838Z,7.03
2022-12-11T04:34:59.291Z,6.53
2022-12-11T04:37:47.033Z,6.37
2022-12-11T04:40:34.368Z,6.93
2022-12-11T04:43:21.695Z,6.17
2022-12-11T04:46:10.263Z,6.53
2022-12-11T04:48:58.067Z,6.07
2022-12-11T04:51:45.507Z,5.77
2022-12-11T04:54:32.917Z,6.17
2022-12-11T04:57:21.503Z,6.20
2022-12-11T05:00:11.069Z,6.37
2022-12-11T05:02:58.491Z,6.10
2022-12-11T05:05:53.323Z,6.60
2022-12-11T05:08:41.431Z,6.10
2022-12-11T05:11:28.777Z,6.07
2022-12-11T05:14:17.204Z,5.97
2022-12-11T05:17:04.525Z,6.10
2022-12-11T05:19:52.276Z,6.50
2022-12-11T05:22:39.765Z,6.73
2022-12-11T05:25:27.077Z,6.77
2022-12-11T05:28:14.409Z,6.43
2022-12-11T05:31:03.449Z,6.03
2022-12-11T05:33:51.240Z,7.43
2022-12-11T05:36:38.944Z,6.17
2022-12-11T05:39:26.299Z,7.33
2022-12-11T05:42:13.651Z,6.60
2022-12-11T05:45:01.039Z,7.27
2022-12-11T05:47:48.364Z,6.10
2022-12-11T05:50:35.730Z,6.27
2022-12-11T05:53:22.633Z,6.17
2022-12-11T05:56:15.363Z,6.30
2022-12-11T05:59:03.919Z,6.27
2022-12-11T06:01:50.964Z,6.90
2022-12-11T06:04:37.910Z,6.27
2022-12-11T06:07:25.039Z,6.40
2022-12-11T06:10:12.032Z,6.37
2022-12-11T06:12:59.270Z,7.10
2022-12-11T06:15:46.219Z,6.80
2022-12-11T06:18:36.689Z,6.57
2022-12-11T06:21:31.838Z,7.53
2022-12-11T06:24:18.860Z,7.67
2022-12-11T06:27:05.840Z,7.53
2022-12-11T06:29:52.723Z,9.20
2022-12-11T06:32:39.654Z,8.03
2022-12-11T06:35:26.589Z,7.57
2022-12-11T06:38:13.516Z,6.73
2022-12-11T06:41:04.538Z,7.20
2022-12-11T06:43:51.489Z,7.10
2022-12-11T06:46:38.413Z,7.10
2022-12-11T06:49:25.324Z,6.83
2022-12-11T06:52:18.016Z,7.00
2022-12-11T06:55:05.992Z,7.00
2022-12-11T06:57:52.914Z,7.20
2022-12-11T07:00:39.974Z,7.63
2022-12-11T07:03:26.952Z,7.93
2022-12-11T07:06:14.606Z,7.97
2022-12-11T07:09:05.194Z,7.50
2022-12-11T07:11:52.929Z,8.03
2022-12-11T07:14:39.892Z,6.97
2022-12-11T07:17:28.299Z,10.00
2022-12-11T07:20:15.335Z,12.00
2022-12-11T07:23:02.757Z,9.73
2022-12-11T07:25:49.861Z,7.93
2022-12-11T07:28:36.879Z,7.87
2022-12-11T07:31:25.262Z,7.40
2022-12-11T07:34:14.265Z,7.47
2022-12-11T07:37:01.742Z,7.33
2022-12-11T07:39:49.368Z,6.63
2022-12-11T07:42:38.378Z,7.23
2022-12-11T07:45:28.499Z,6.93
2022-12-11T07:48:15.607Z,6.00
2022-12-11T07:51:26.325Z,7.10
2022-12-11T07:54:16.578Z,7.17
2022-12-11T07:57:03.691Z,7.00
2022-12-11T07:59:50.618Z,6.57
2022-12-11T08:02:37.868Z,7.20
2022-12-11T08:05:24.836Z,7.20
2022-12-11T08:08:11.821Z,7.17
2022-12-11T08:11:03.697Z,10.48
2022-12-11T08:13:50.956Z,8.47
2022-12-11T08:16:40.185Z,10.70
2022-12-11T08:19:27.989Z,7.73
2022-12-11T08:22:14.930Z,8.07
2022-12-11T08:25:01.872Z,7.83
2022-12-11T08:27:49.081Z,7.57
2022-12-11T08:30:38.190Z,8.73
2022-12-11T08:33:25.673Z,7.33
2022-12-11T08:36:16.118Z,8.00
2022-12-11T08:39:03.258Z,7.67
2022-12-11T08:41:50.272Z,8.90
2022-12-11T08:44:37.697Z,8.97
2022-12-11T08:47:24.859Z,7.97
2022-12-11T08:50:11.765Z,9.33
2022-12-11T08:52:59.547Z,9.80
2022-12-11T08:55:46.527Z,9.97
2022-12-11T08:58:33.667Z,10.10
2022-12-11T09:01:25.949Z,9.43
2022-12-11T09:04:12.930Z,8.67
2022-12-11T09:06:59.867Z,9.10
2022-12-11T09:09:46.859Z,8.03
2022-12-11T09:12:35.512Z,10.33
2022-12-11T09:15:22.473Z,9.00
2022-12-11T09:18:09.488Z,8.63
2022-12-11T09:21:05.409Z,8.50
2022-12-11T09:23:58.104Z,8.47
2022-12-11T09:26:45.046Z,8.10
2022-12-11T09:29:32.618Z,8.50
2022-12-11T09:32:19.554Z,9.17
2022-12-11T09:35:07.223Z,8.13
2022-12-11T09:37:54.192Z,7.87
2022-12-11T09:40:43.242Z,8.10
2022-12-11T09:44:11.369Z,8.03
2022-12-11T09:46:58.912Z,8.90
2022-12-11T09:49:48.017Z,10.07
2022-12-11T09:52:58.248Z,10.50
2022-12-11T09:56:13.321Z,10.53
2022-12-11T09:59:13.111Z,10.10
2022-12-11T10:02:11.870Z,11.07
2022-12-11T10:05:20.045Z,9.40
2022-12-11T10:08:18.476Z,9.57
2022-12-11T10:11:24.918Z,8.57
2022-12-11T10:14:12.296Z,10.30
2022-12-11T10:17:29.017Z,9.77
2022-12-11T10:20:23.065Z,9.53
2022-12-11T10:23:14.586Z,10.13
2022-12-11T10:26:07.474Z,10.37
2022-12-11T10:28:55.474Z,9.87
2022-12-11T10:31:58.654Z,9.20
2022-12-11T10:34:47.236Z,9.23
2022-12-11T10:37:34.578Z,8.80
2022-12-11T10:40:23.236Z,9.50
2022-12-11T10:43:10.641Z,8.77
2022-12-11T10:45:58.800Z,9.37
2022-12-11T10:48:56.952Z,10.27
2022-12-11T10:51:44.739Z,10.57
2022-12-11T10:54:32.297Z,9.37
2022-12-11T10:57:27.004Z,11.13
2022-12-11T11:00:50.027Z,12.70
2022-12-11T11:03:43.200Z,13.82
2022-12-11T11:06:30.725Z,11.17
2022-12-11T11:09:30.327Z,11.23
2022-12-11T11:12:19.315Z,10.67
2022-12-11T11:15:11.734Z,11.17
2022-12-11T11:18:09.746Z,11.13
2022-12-11T11:20:57.415Z,15.32
2022-12-11T11:23:48.293Z,12.82
2022-12-11T11:27:11.781Z,11.20
2022-12-11T11:29:52.802Z,10.37
2022-12-11T11:32:41.725Z,11.13
2022-12-11T11:35:30.047Z,10.70
2022-12-11T11:38:22.688Z,10.40
2022-12-11T11:41:15.277Z,9.73
2022-12-11T11:44:04.923Z,10.20
2022-12-11T11:47:01.079Z,10.53
2022-12-11T11:49:56.373Z,10.23
2022-12-11T11:52:47.540Z,10.87
2022-12-11T11:56:01.174Z,10.30
2022-12-11T11:58:55.227Z,10.10
2022-12-11T12:01:43.339Z,9.83
2022-12-11T12:04:34.933Z,11.00
2022-12-11T12:07:31.719Z,10.00
2022-12-11T12:10:22.046Z,10.70
2022-12-11T12:13:47.592Z,9.80
2022-12-11T12:16:52.709Z,10.13
2022-12-11T12:19:40.618Z,10.23
2022-12-11T12:22:46.612Z,10.67
2022-12-11T12:25:42.979Z,11.03
2022-12-11T12:28:51.787Z,10.57
2022-12-11T12:31:48.161Z,9.13
2022-12-11T12:34:54.444Z,10.87
2022-12-11T12:37:53.548Z,10.40
2022-12-11T12:40:49.538Z,10.30
2022-12-11T12:43:55.925Z,10.70
2022-12-11T12:46:55.470Z,9.50
2022-12-11T12:49:43.992Z,10.57
2022-12-11T12:52:35.410Z,10.13
2022-12-11T12:55:24.833Z,10.33
2022-12-11T12:58:32.885Z,11.37
2022-12-11T13:01:22.170Z,10.90
2022-12-11T13:04:54.561Z,10.87
2022-12-11T13:07:34.652Z,10.00
2022-12-11T13:10:24.704Z,10.73
2022-12-11T13:13:31.137Z,10.80
2022-12-11T13:16:18.489Z,9.80
2022-12-11T13:19:24.091Z,10.97
2022-12-11T13:22:14.303Z,11.03
2022-12-11T13:25:04.718Z,10.27
2022-12-11T13:27:52.265Z,11.07
2022-12-11T13:30:39.694Z,10.73
2022-12-11T13:33:29.924Z,10.83
2022-12-11T13:36:28.481Z,9.83
2022-12-11T13:39:17.642Z,11.63
2022-12-11T13:42:17.570Z,10.50
2022-12-11T13:45:05.504Z,9.53
2022-12-11T13:47:52.879Z,10.27
2022-12-11T13:50:43.642Z,10.60
2022-12-11T13:53:31.065Z,11.07
2022-12-11T13:56:23.120Z,10.60
2022-12-11T13:59:26.116Z,9.90
2022-12-11T14:02:19.901Z,10.70
2022-12-11T14:05:09.092Z,10.53
2022-12-11T14:07:58.054Z,10.77
2022-12-11T14:10:45.464Z,10.13
2022-12-11T14:13:34.700Z,10.30
2022-12-11T14:16:23.941Z,9.97
2022-12-11T14:19:15.874Z,10.00
2022-12-11T14:22:05.025Z,9.70
2022-12-11T14:24:53.211Z,10.30
2022-12-11T14:27:47.652Z,10.43
2022-12-11T14:30:36.305Z,9.97
2022-12-11T14:33:26.202Z,10.83
2022-12-11T14:36:15.261Z,10.37
2022-12-11T14:39:05.090Z,10.87
2022-12-11T14:41:52.586Z,11.60
2022-12-11T14:44:55.128Z,10.87
2022-12-11T14:47:43.669Z,11.60
2022-12-11T14:50:40.013Z,11.03
2022-12-11T14:53:29.746Z,9.97
2022-12-11T14:56:21.839Z,10.43
2022-12-11T14:59:19.197Z,10.43
2022-12-11T15:02:39.226Z,10.63
2022-12-11T15:05:28.091Z,10.20
2022-12-11T15:08:17.269Z,10.30
2022-12-11T15:11:13.558Z,10.47
2022-12-11T15:14:03.505Z,10.93
2022-12-11T15:16:52.370Z,9.97
2022-12-11T15:19:39.997Z,9.77
2022-12-11T15:22:30.495Z,10.23
2022-12-11T15:25:19.400Z,10.07
2022-12-11T15:28:06.743Z,10.87
2022-12-11T15:31:02.042Z,10.20
2022-12-11T15:33:49.413Z,10.43
2022-12-11T15:36:37.414Z,10.53
2022-12-11T15:39:24.777Z,10.57
2022-12-11T15:42:14.118Z,10.00
2022-12-11T15:45:02.830Z,10.50
2022-12-11T15:47:50.575Z,10.20
2022-12-11T15:50:37.491Z,10.47
2022-12-11T15:53:25.889Z,10.23
2022-12-11T15:56:16.468Z,10.87
2022-12-11T15:59:04.913Z,11.47
2022-12-11T16:01:52.278Z,10.87
2022-12-11T16:04:40.001Z,10.33
2022-12-11T16:07:26.943Z,11.07
2022-12-11T16:10:18.686Z,11.07
2022-12-11T16:13:05.752Z,9.53
2022-12-11T16:15:53.803Z,10.30
2022-12-11T16:18:40.839Z,10.23
2022-12-11T16:21:27.814Z,11.60
2022-12-11T16:24:14.744Z,10.80
2022-12-11T16:27:01.985Z,9.93
2022-12-11T16:29:49.412Z,11.70
2022-12-11T16:32:36.622Z,10.13
2022-12-11T16:35:24.003Z,10.73
2022-12-11T16:38:11.615Z,11.57
2022-12-11T16:41:01.945Z,11.10
2022-12-11T16:43:48.976Z,11.77
2022-12-11T16:46:36.250Z,10.70
2022-12-11T16:49:23.633Z,12.07
2022-12-11T16:52:10.982Z,11.53
2022-12-11T16:54:58.332Z,10.73
2022-12-11T16:57:45.257Z,10.67
2022-12-11T17:00:32.602Z,10.03
2022-12-11T17:03:20.030Z,10.43
2022-12-11T17:06:08.528Z,11.63
2022-12-11T17:08:55.649Z,11.63
2022-12-11T17:11:42.776Z,12.27
2022-12-11T17:14:29.900Z,12.87
2022-12-11T17:17:16.851Z,11.33
2022-12-11T17:20:04.621Z,10.47
2022-12-11T17:22:52.770Z,11.13
2022-12-11T17:25:42.086Z,11.63
2022-12-11T17:28:30.197Z,12.37
2022-12-11T17:31:19.222Z,11.73
2022-12-11T17:34:06.766Z,11.10
2022-12-11T17:36:53.751Z,11.83
2022-12-11T17:39:40.746Z,11.33
2022-12-11T17:42:27.747Z,13.13
2022-12-11T17:45:14.836Z,12.00
2022-12-11T17:48:01.909Z,12.87
2022-12-11T17:50:50.983Z,11.53
2022-12-11T17:53:37.976Z,10.90
2022-12-11T17:56:25.926Z,12.20
2022-12-11T17:59:13.020Z,11.57
2022-12-11T18:02:00.061Z,12.97
2022-12-11T18:04:47.307Z,12.77
2022-12-11T18:07:37.409Z,12.30
2022-12-11T18:10:24.798Z,12.97
2022-12-11T18:13:12.528Z,12.30
2022-12-11T18:16:02.659Z,12.93
2022-12-11T18:18:50.399Z,12.27
2022-12-11T18:21:41.227Z,12.40
2022-12-11T18:24:31.678Z,12.23
2022-12-11T18:27:19.231Z,13.43
2022-12-11T18:30:06.749Z,13.70
2022-12-11T18:32:53.792Z,13.03
2022-12-11T18:35:41.545Z,13.67
2022-12-11T18:38:28.543Z,14.67
2022-12-11T18:41:16.723Z,14.17
2022-12-11T18:44:09.372Z,14.33
2022-12-11T18:46:56.912Z,14.90
2022-12-11T18:49:43.930Z,13.73
2022-12-11T18:52:30.950Z,15.17
2022-12-11T18:55:17.897Z,14.23
2022-12-11T18:58:04.918Z,15.00
2022-12-11T19:00:55.209Z,13.93
2022-12-11T19:03:42.570Z,14.40
2022-12-11T19:06:30.207Z,16.83
2022-12-11T19:09:17.791Z,16.57
2022-12-11T19:12:05.167Z,16.90
2022-12-11T19:14:52.070Z,15.67
2022-12-11T19:17:39.058Z,17.27
2022-12-11T19:20:47.912Z,27.30
2022-12-11T19:23:33.096Z,21.23
2022-12-11T19:26:22.533Z,22.67
2022-12-11T19:29:11.211Z,18.47
2022-12-11T19:31:59.851Z,18.80
2022-12-11T19:34:47.961Z,16.07
2022-12-11T19:37:35.117Z,15.10
2022-12-11T19:40:26.054Z,16.67
2022-12-11T19:43:13.040Z,16.17
2022-12-11T19:46:07.974Z,14.93
2022-12-11T19:48:56.967Z,14.23
2022-12-11T19:51:44.857Z,14.80
2022-12-11T19:54:32.291Z,14.33
2022-12-11T19:57:19.258Z,14.17
2022-12-11T20:00:08.009Z,13.67
2022-12-11T20:02:54.964Z,13.70
2022-12-11T20:05:42.111Z,14.07
2022-12-11T20:08:44.165Z,14.10
2022-12-11T20:11:35.821Z,14.13
2022-12-11T20:14:25.328Z,13.47
2022-12-11T20:17:14.506Z,13.87
2022-12-11T20:20:02.142Z,13.13
2022-12-11T20:22:52.646Z,13.50
2022-12-11T20:25:40.341Z,13.17
2022-12-11T20:28:27.338Z,12.87
2022-12-11T20:31:20.373Z,14.13
2022-12-11T20:34:07.806Z,13.13
2022-12-11T20:36:55.528Z,14.73
2022-12-11T20:39:42.499Z,13.63
2022-12-11T20:42:29.446Z,14.63
2022-12-11T20:45:16.439Z,13.60
2022-12-11T20:48:03.415Z,13.37
2022-12-11T20:50:52.378Z,13.23
2022-12-11T20:53:39.966Z,13.47
2022-12-11T20:56:31.374Z,14.13
2022-12-11T20:59:18.820Z,15.27
2022-12-11T21:02:05.937Z,18.33
2022-12-11T21:04:52.923Z,15.70
2022-12-11T21:07:39.820Z,15.30
2022-12-11T21:10:26.763Z,14.13
2022-12-11T21:13:13.731Z,15.43
2022-12-11T21:16:05.393Z,15.17
2022-12-11T21:18:52.517Z,14.67
2022-12-11T21:21:39.850Z,13.50
2022-12-11T21:24:28.877Z,14.87
2022-12-11T21:27:15.849Z,14.93
2022-12-11T21:30:03.557Z,15.53
2022-12-11T21:32:50.490Z,15.30
2022-12-11T21:35:37.484Z,13.80
2022-12-11T21:38:24.909Z,14.87
2022-12-11T21:41:20.756Z,14.53
2022-12-11T21:45:25.917Z,14.77
2022-12-11T21:47:14.717Z,13.90
2022-12-11T21:50:05.027Z,14.27
2022-12-11T21:52:52.095Z,14.47
2022-12-11T21:55:42.176Z,14.20
2022-12-11T21:58:29.119Z,15.80
2022-12-11T22:01:20.660Z,13.27
2022-12-11T22:04:09.932Z,13.47
2022-12-11T22:06:56.907Z,13.93
2022-12-11T22:09:43.893Z,14.57
2022-12-11T22:12:30.847Z,13.47
2022-12-11T22:15:17.795Z,13.07
2022-12-11T22:18:04.956Z,13.00
2022-12-11T22:20:51.928Z,13.33
2022-12-11T22:23:40.539Z,12.00
2022-12-11T22:26:28.719Z,13.90
2022-12-11T22:29:15.605Z,12.70
2022-12-11T22:32:03.436Z,13.20
2022-12-11T22:34:50.682Z,13.63
2022-12-11T22:37:37.807Z,13.23
2022-12-11T22:40:25.631Z,12.40
2022-12-11T22:43:12.534Z,13.80
2022-12-11T22:45:59.929Z,12.97
2022-12-11T22:48:46.952Z,12.87
2022-12-11T22:51:33.964Z,12.27
2022-12-11T22:54:20.908Z,15.07
2022-12-11T22:57:08.351Z,14.00
2022-12-11T22:59:57.286Z,14.40
2022-12-11T23:02:45.130Z,14.20
2022-12-11T23:05:32.785Z,13.73
2022-12-11T23:08:20.088Z,15.70
2022-12-11T23:11:25.891Z,14.03
2022-12-11T23:14:15.960Z,13.57
2022-12-11T23:17:03.418Z,13.77
2022-12-11T23:19:51.604Z,12.80
2022-12-11T23:22:38.536Z,13.63
2022-12-11T23:25:25.928Z,13.87
2022-12-11T23:28:12.967Z,12.80
2022-12-11T23:31:00.379Z,13.60
2022-12-11T23:33:47.704Z,13.57
2022-12-11T23:36:34.810Z,11.70
2022-12-11T23:39:21.804Z,11.63
2022-12-11T23:42:09.317Z,12.00
2022-12-11T23:44:56.451Z,12.37
2022-12-11T23:47:43.389Z,12.47
2022-12-11T23:50:32.759Z,11.87
2022-12-11T23:53:19.751Z,11.50
2022-12-11T23:56:10.160Z,11.33
2022-12-11T23:58:57.746Z,10.60
